Time;durP1;ratioP1;P1;durP2;ratioP2;P2;SDS_P1;SDS_P2;PMS_P1;PMS_P2;Temp;Humidity;BMP_temperature;BMP_pressure;BME280_temperature;BME280_humidity;BME280_pressure;Samples;Min_cycle;Max_cycle;Signal;HPM_P1;HPM_P2
2021/12/22 00:00:23;;;;;;;8.73;3.63;;;27.40;58.30;;;;;;6304264;22;20027;-76
2021/12/22 00:02:50;;;;;;;11.40;3.55;;;27.40;58.30;;;;;;6303310;22;19999;-78
2021/12/22 00:05:22;;;;;;;12.30;3.05;;;27.40;58.30;;;;;;6304241;22;20553;-78
2021/12/22 00:07:49;;;;;;;17.27;3.60;;;27.40;58.40;;;;;;6303710;22;20003;-78
2021/12/22 00:10:18;;;;;;;13.93;4.13;;;27.40;58.50;;;;;;6303708;22;20041;-77
2021/12/22 00:12:45;;;;;;;10.43;3.05;;;27.40;58.60;;;;;;6304292;22;20003;-76
2021/12/22 00:15:13;;;;;;;7.88;3.70;;;27.40;58.60;;;;;;6302813;22;20047;-75
2021/12/22 00:17:39;;;;;;;9.88;3.50;;;27.40;58.60;;;;;;6303830;22;20057;-75
2021/12/22 00:20:08;;;;;;;10.25;3.65;;;27.30;58.60;;;;;;6303110;22;19999;-75
2021/12/22 00:22:35;;;;;;;9.95;3.17;;;27.30;58.70;;;;;;6304165;22;19999;-74
2021/12/22 00:25:03;;;;;;;9.88;3.40;;;27.30;58.70;;;;;;6303274;22;20073;-74
2021/12/22 00:27:29;;;;;;;13.38;4.00;;;27.30;58.70;;;;;;6303434;22;19999;-74
2021/12/22 00:29:59;;;;;;;10.30;3.28;;;27.30;58.70;;;;;;6303720;22;20457;-75
2021/12/22 00:32:28;;;;;;;10.68;3.30;;;27.30;58.80;;;;;;6302784;22;20003;-74
2021/12/22 00:34:56;;;;;;;10.85;4.07;;;27.30;58.90;;;;;;6303535;22;20006;-73
2021/12/22 00:37:28;;;;;;;8.15;3.10;;;27.30;58.90;;;;;;6302471;22;20002;-75
2021/12/22 00:39:56;;;;;;;9.20;3.42;;;27.20;58.90;;;;;;6303815;22;19999;-75
2021/12/22 00:42:24;;;;;;;8.18;3.03;;;27.30;59.00;;;;;;6303090;22;19999;-74
2021/12/22 00:44:53;;;;;;;8.50;3.42;;;27.20;59.00;;;;;;6302515;22;20015;-72
2021/12/22 00:47:26;;;;;;;12.57;3.65;;;27.20;59.20;;;;;;6303874;22;20076;-72
2021/12/22 00:49:54;;;;;;;15.88;3.95;;;27.30;59.30;;;;;;6302360;22;20003;-74
2021/12/22 00:52:21;;;;;;;10.55;4.38;;;27.30;59.30;;;;;;6304105;22;20007;-75
2021/12/22 00:54:48;;;;;;;14.20;3.80;;;27.20;59.20;;;;;;6302545;22;20010;-75
2021/12/22 00:57:16;;;;;;;24.88;9.27;;;27.20;59.30;;;;;;6304119;22;20003;-72
2021/12/22 00:59:44;;;;;;;28.52;12.40;;;27.20;59.40;;;;;;6303274;22;20083;-74
2021/12/22 01:02:13;;;;;;;37.78;10.90;;;27.20;59.50;;;;;;6303099;22;19995;-74
2021/12/22 01:04:40;;;;;;;29.55;7.63;;;27.10;59.60;;;;;;6303531;22;20008;-73
2021/12/22 01:07:07;;;;;;;18.08;5.22;;;27.10;59.60;;;;;;6302589;22;19999;-75
2021/12/22 01:09:35;;;;;;;16.38;5.32;;;27.10;59.80;;;;;;6303960;22;20002;-75
2021/12/22 01:12:04;;;;;;;15.48;3.70;;;27.20;60.10;;;;;;6302174;22;20004;-75
2021/12/22 01:14:31;;;;;;;22.63;4.90;;;27.10;60.10;;;;;;6301746;22;20335;-73
2021/12/22 01:17:01;;;;;;;16.90;3.47;;;27.10;60.30;;;;;;6303301;22;20300;-72
2021/12/22 01:19:48;;;;;;;21.67;6.05;;;27.10;60.40;;;;;;6302832;22;19995;-74
2021/12/22 01:22:33;;;;;;;19.48;4.22;;;27.10;60.70;;;;;;6303351;22;19999;-74
2021/12/22 01:25:01;;;;;;;19.63;4.33;;;27.10;60.80;;;;;;6302059;22;20007;-75
2021/12/22 01:27:35;;;;;;;13.50;3.80;;;27.10;60.70;;;;;;6303401;22;20224;-75
2021/12/22 01:30:06;;;;;;;22.87;5.57;;;27.10;60.40;;;;;;6303066;22;19999;-75
2021/12/22 01:32:32;;;;;;;22.17;6.35;;;27.00;60.30;;;;;;6300826;22;20110;-75
2021/12/22 01:34:59;;;;;;;19.98;5.00;;;27.00;60.40;;;;;;6303768;22;19995;-73
2021/12/22 01:37:26;;;;;;;18.90;4.30;;;27.00;60.40;;;;;;6301947;22;20774;-74
2021/12/22 01:39:53;;;;;;;14.75;5.05;;;27.00;60.30;;;;;;6303374;22;19996;-74
2021/12/22 01:42:19;;;;;;;12.80;4.35;;;27.00;60.20;;;;;;6302139;22;19999;-74
2021/12/22 01:45:14;;;;;;;9.02;4.38;;;27.00;60.10;;;;;;6303142;22;20513;-75
2021/12/22 01:50:46;;;;;;;12.45;4.72;;;27.00;60.10;;;;;;6302182;22;20015;-73
2021/12/22 01:53:22;;;;;;;14.02;4.28;;;26.90;60.00;;;;;;6303221;22;20056;-74
2021/12/22 01:56:06;;;;;;;14.35;5.07;;;26.90;60.00;;;;;;6302451;22;20056;-74
2021/12/22 01:58:35;;;;;;;16.42;4.60;;;26.90;60.00;;;;;;6302075;22;20010;-73
2021/12/22 02:01:04;;;;;;;13.60;4.10;;;26.90;60.00;;;;;;6303013;22;19999;-74
2021/12/22 02:03:32;;;;;;;10.75;4.38;;;26.90;60.10;;;;;;6302207;22;19999;-74
2021/12/22 02:05:59;;;;;;;14.27;4.47;;;26.80;60.00;;;;;;6302993;22;20033;-74
2021/12/22 02:08:26;;;;;;;12.05;4.03;;;26.80;60.20;;;;;;6302591;22;19995;-76
2021/12/22 02:10:52;;;;;;;11.30;3.35;;;26.80;60.30;;;;;;6303162;22;20007;-75
2021/12/22 02:13:24;;;;;;;14.20;4.25;;;26.80;60.40;;;;;;6303125;22;20449;-76
2021/12/22 02:15:51;;;;;;;12.18;4.25;;;26.80;60.50;;;;;;6301654;22;20074;-75
2021/12/22 02:18:20;;;;;;;12.45;4.43;;;26.80;60.50;;;;;;6302901;22;20052;-76
2021/12/22 02:20:48;;;;;;;13.73;5.05;;;26.80;60.50;;;;;;6301883;22;20032;-75
2021/12/22 02:23:15;;;;;;;13.07;4.15;;;26.80;60.50;;;;;;6303120;22;20052;-75
2021/12/22 02:25:50;;;;;;;14.25;4.00;;;26.80;60.60;;;;;;6301787;22;20035;-74
2021/12/22 02:28:23;;;;;;;11.93;4.22;;;26.70;60.60;;;;;;6302228;22;20048;-75
2021/12/22 02:30:53;;;;;;;13.15;4.28;;;26.70;60.60;;;;;;6303589;22;20010;-74
2021/12/22 02:33:21;;;;;;;11.07;4.20;;;26.70;60.70;;;;;;6301447;22;20081;-76
2021/12/22 02:36:08;;;;;;;11.25;3.70;;;26.70;60.70;;;;;;6303463;22;20002;-74
2021/12/22 02:38:41;;;;;;;7.22;3.65;;;26.70;60.80;;;;;;6302169;22;20384;-75
2021/12/22 02:41:12;;;;;;;11.93;4.15;;;26.70;60.80;;;;;;6302369;22;19999;-75
2021/12/22 02:43:46;;;;;;;13.68;3.90;;;26.70;60.90;;;;;;6303054;22;19999;-75
2021/12/22 02:46:14;;;;;;;20.35;4.85;;;26.70;61.00;;;;;;6299910;22;20045;-76
2021/12/22 02:48:41;;;;;;;16.20;4.32;;;26.70;61.20;;;;;;6303186;22;20010;-76
2021/12/22 02:51:08;;;;;;;25.38;6.05;;;26.60;61.70;;;;;;6302005;22;19999;-74
2021/12/22 02:54:20;;;;;;;11.52;4.35;;;26.60;61.00;;;;;;6302960;22;20003;-75
2021/12/22 02:56:30;;;;;;;13.32;4.35;;;26.60;61.10;;;;;;6294120;22;20373;-75
2021/12/22 03:04:22;;;;;;;28.13;5.18;;;26.60;61.00;;;;;;6304212;22;20754;-76
2021/12/22 03:07:02;;;;;;;41.67;7.88;;;26.60;61.10;;;;;;6304474;22;20011;-77
2021/12/22 03:09:34;;;;;;;29.13;5.57;;;26.50;61.30;;;;;;6304834;22;20026;-74
2021/12/22 03:12:05;;;;;;;22.38;6.50;;;26.50;61.40;;;;;;6303595;22;20032;-75
2021/12/22 03:14:31;;;;;;;22.65;5.03;;;26.50;61.40;;;;;;6305296;22;20107;-75
2021/12/22 03:16:58;;;;;;;24.15;5.07;;;26.50;61.30;;;;;;6304123;22;20365;-75
2021/12/22 03:19:30;;;;;;;22.10;4.95;;;26.50;61.20;;;;;;6304967;22;19995;-76
2021/12/22 03:22:04;;;;;;;16.15;4.13;;;26.50;61.20;;;;;;6304759;22;20060;-74
2021/12/22 03:24:34;;;;;;;20.00;4.00;;;26.50;61.20;;;;;;6304195;22;20475;-76
2021/12/22 03:27:03;;;;;;;19.55;3.78;;;26.40;61.10;;;;;;6304528;22;19999;-76
2021/12/22 03:29:32;;;;;;;14.20;4.22;;;26.40;61.10;;;;;;6303273;22;20869;-75
2021/12/22 03:32:00;;;;;;;7.75;3.05;;;26.40;61.10;;;;;;6304594;22;20409;-74
2021/12/22 03:34:27;;;;;;;15.02;3.80;;;26.40;61.10;;;;;;6303841;22;20002;-75
2021/12/22 03:36:54;;;;;;;9.23;3.88;;;26.40;61.10;;;;;;6304360;22;20014;-74
2021/12/22 03:39:20;;;;;;;7.90;2.65;;;26.40;61.20;;;;;;6303732;22;20098;-75
2021/12/22 03:41:47;;;;;;;13.43;2.90;;;26.40;61.20;;;;;;6303607;22;20007;-72
2021/12/22 03:44:14;;;;;;;11.48;3.38;;;26.40;61.30;;;;;;6305096;22;20388;-74
2021/12/22 03:46:41;;;;;;;19.98;3.97;;;26.40;61.30;;;;;;6303564;22;20015;-75
2021/12/22 03:49:10;;;;;;;15.05;3.83;;;26.40;61.40;;;;;;6304335;22;20788;-73
2021/12/22 03:51:37;;;;;;;10.27;4.00;;;26.40;61.40;;;;;;6302435;22;20353;-73
2021/12/22 03:54:07;;;;;;;6.32;3.55;;;26.40;61.50;;;;;;6304691;22;20328;-74
2021/12/22 03:56:34;;;;;;;14.68;4.25;;;26.40;61.60;;;;;;6304048;22;20010;-74
2021/12/22 03:59:01;;;;;;;14.65;3.13;;;26.40;61.60;;;;;;6303634;22;20319;-74
2021/12/22 04:01:27;;;;;;;10.05;3.28;;;26.40;61.60;;;;;;6304179;22;20006;-75
2021/12/22 04:03:58;;;;;;;6.55;2.85;;;26.40;61.70;;;;;;6302764;22;20027;-73
2021/12/22 04:06:25;;;;;;;7.53;3.50;;;26.30;61.70;;;;;;6304023;22;20003;-75
2021/12/22 04:08:52;;;;;;;15.60;3.72;;;26.40;61.80;;;;;;6302595;22;19996;-73
2021/12/22 04:11:18;;;;;;;13.82;3.58;;;26.30;61.70;;;;;;6303879;22;20030;-75
2021/12/22 04:13:45;;;;;;;20.02;4.38;;;26.40;61.90;;;;;;6303220;22;20002;-75
2021/12/22 04:16:12;;;;;;;10.77;3.47;;;26.40;62.30;;;;;;6303805;22;19997;-75
2021/12/22 04:18:40;;;;;;;18.83;5.03;;;26.30;61.70;;;;;;6303375;22;20045;-76
2021/12/22 04:21:06;;;;;;;19.67;9.38;;;26.20;62.20;;;;;;6302924;22;20548;-75
2021/12/22 04:23:33;;;;;;;35.85;25.13;;;26.20;62.70;;;;;;6301219;22;20876;-74
2021/12/22 04:26:00;;;;;;;12.43;5.38;;;26.00;63.00;;;;;;6301528;22;20434;-77
2021/12/22 04:28:26;;;;;;;12.75;4.15;;;25.90;63.60;;;;;;6303697;22;19995;-76
2021/12/22 04:30:53;;;;;;;16.55;3.97;;;25.80;64.20;;;;;;6302812;22;20034;-76
2021/12/22 04:33:21;;;;;;;13.00;4.43;;;25.80;64.50;;;;;;6303503;22;20418;-76
2021/12/22 04:35:52;;;;;;;9.27;4.53;;;25.70;64.80;;;;;;6303961;22;19995;-76
2021/12/22 04:38:20;;;;;;;10.80;5.05;;;25.60;65.00;;;;;;6302528;22;20010;-76
2021/12/22 04:40:47;;;;;;;15.40;4.53;;;25.60;65.10;;;;;;6303915;22;20026;-75
2021/12/22 04:43:15;;;;;;;35.22;6.32;;;25.60;65.40;;;;;;6302961;22;20015;-75
2021/12/22 04:45:43;;;;;;;25.85;12.50;;;25.50;65.50;;;;;;6301041;22;20128;-75
2021/12/22 04:48:10;;;;;;;29.55;12.18;;;25.60;65.50;;;;;;6302334;22;19999;-74
2021/12/22 04:50:37;;;;;;;24.15;11.23;;;25.70;65.90;;;;;;6302662;22;19999;-73
2021/12/22 04:53:18;;;;;;;19.25;8.57;;;25.80;65.10;;;;;;6303703;22;20457;-74
2021/12/22 04:56:05;;;;;;;26.50;8.23;;;25.90;64.80;;;;;;6300369;22;19998;-75
2021/12/22 04:58:31;;;;;;;15.57;5.43;;;26.00;64.60;;;;;;6301121;22;20065;-74
2021/12/22 05:00:58;;;;;;;15.38;5.00;;;26.00;64.20;;;;;;6301368;22;20011;-75
2021/12/22 05:03:24;;;;;;;21.75;4.82;;;26.10;64.00;;;;;;6303444;22;20029;-75
2021/12/22 05:05:51;;;;;;;19.33;5.35;;;26.10;63.80;;;;;;6301513;22;20014;-75
2021/12/22 05:08:18;;;;;;;45.05;5.95;;;26.20;63.80;;;;;;6302636;22;19991;-75
2021/12/22 05:10:45;;;;;;;40.50;5.47;;;26.20;63.80;;;;;;6303664;22;20054;-75
2021/12/22 05:13:11;;;;;;;33.92;5.50;;;26.20;63.90;;;;;;6302809;22;19999;-74
2021/12/22 05:15:39;;;;;;;26.17;4.55;;;26.20;63.80;;;;;;6302598;22;20005;-75
2021/12/22 05:18:21;;;;;;;13.30;3.63;;;26.30;63.70;;;;;;6301509;22;20031;-75
2021/12/22 05:20:48;;;;;;;16.65;4.40;;;26.30;63.50;;;;;;6302808;22;20002;-76
2021/12/22 05:23:17;;;;;;;16.15;3.63;;;26.30;63.20;;;;;;6302381;22;20005;-73
2021/12/22 05:25:43;;;;;;;19.77;4.28;;;26.40;63.10;;;;;;6301027;22;20023;-76
2021/12/22 05:28:10;;;;;;;29.35;4.93;;;26.30;62.90;;;;;;6303115;22;19999;-76
2021/12/22 05:30:36;;;;;;;16.00;4.20;;;26.40;62.90;;;;;;6301583;22;19995;-76
2021/12/22 05:33:04;;;;;;;25.77;5.35;;;26.40;62.80;;;;;;6303237;22;19999;-75
2021/12/22 05:35:32;;;;;;;30.20;7.03;;;26.40;62.70;;;;;;6301845;22;20537;-77
2021/12/22 05:37:58;;;;;;;51.38;13.65;;;26.40;62.80;;;;;;6301487;22;20065;-75
2021/12/22 05:40:28;;;;;;;49.58;12.48;;;26.40;62.70;;;;;;6302778;22;19999;-79
2021/12/22 05:42:55;;;;;;;39.80;9.45;;;26.50;62.60;;;;;;6302382;22;19995;-75
2021/12/22 05:45:22;;;;;;;32.03;7.07;;;26.50;62.60;;;;;;6303214;22;20315;-75
2021/12/22 05:47:50;;;;;;;28.63;6.47;;;26.50;62.50;;;;;;6302153;22;19996;-75
2021/12/22 05:50:18;;;;;;;21.30;4.72;;;26.60;62.50;;;;;;6303571;22;20009;-75
2021/12/22 05:52:45;;;;;;;13.77;3.30;;;26.60;62.60;;;;;;6301905;22;20006;-75
2021/12/22 05:57:03;;;;;;;15.40;10.25;;;26.60;62.20;;;;;;5070648;28;20400;-74
2021/12/22 05:59:29;;;;;;;18.10;11.43;;;26.60;63.00;;;;;;5051313;28;20032;-74
2021/12/22 06:01:56;;;;;;;17.65;10.98;;;26.60;62.80;;;;;;5049756;28;20017;-73
2021/12/22 06:04:22;;;;;;;23.52;11.85;;;26.70;62.70;;;;;;5049266;28;20464;-73
2021/12/22 06:06:49;;;;;;;21.52;10.98;;;26.60;62.40;;;;;;5043455;28;20067;-73
2021/12/22 06:09:15;;;;;;;15.05;7.75;;;26.70;62.30;;;;;;5047579;28;20053;-73
2021/12/22 06:11:42;;;;;;;20.67;6.47;;;26.70;62.10;;;;;;5048526;28;20100;-73
2021/12/22 06:14:08;;;;;;;11.25;4.45;;;26.70;62.00;;;;;;5047797;28;20026;-74
2021/12/22 06:16:35;;;;;;;14.98;4.43;;;26.70;61.90;;;;;;5050469;28;20037;-75
2021/12/22 06:19:04;;;;;;;21.50;4.75;;;26.70;61.80;;;;;;5054474;28;20021;-75
2021/12/22 06:21:31;;;;;;;19.55;4.10;;;26.70;61.70;;;;;;5048635;28;20021;-75
2021/12/22 06:23:58;;;;;;;18.20;4.18;;;26.80;61.80;;;;;;5046496;28;20033;-79
2021/12/22 06:26:25;;;;;;;30.77;9.93;;;26.80;61.90;;;;;;5047939;28;20021;-76
2021/12/22 06:28:51;;;;;;;35.17;8.32;;;26.80;62.30;;;;;;5047518;28;20032;-74
2021/12/22 06:31:18;;;;;;;31.77;8.98;;;26.90;62.40;;;;;;5048040;28;20104;-78
2021/12/22 06:33:45;;;;;;;36.97;8.50;;;26.90;62.40;;;;;;5047216;28;20025;-75
2021/12/22 06:36:11;;;;;;;58.33;11.63;;;26.90;62.20;;;;;;5049490;28;20120;-75
2021/12/22 06:38:39;;;;;;;69.07;12.50;;;26.90;62.50;;;;;;5054739;28;20025;-76
2021/12/22 06:41:06;;;;;;;48.50;8.90;;;27.00;63.20;;;;;;5049382;28;20104;-76
2021/12/22 06:43:33;;;;;;;38.42;5.30;;;27.10;63.10;;;;;;5048015;28;20973;-77
2021/12/22 06:46:00;;;;;;;44.78;6.85;;;27.10;62.60;;;;;;5046509;28;20029;-76
2021/12/22 06:48:26;;;;;;;29.42;5.43;;;27.10;63.20;;;;;;5047484;28;20070;-76
2021/12/22 06:50:53;;;;;;;40.47;7.13;;;27.10;63.10;;;;;;5047449;28;20021;-75
2021/12/22 06:53:20;;;;;;;34.50;7.95;;;27.10;62.80;;;;;;5052133;28;20032;-76
2021/12/22 06:55:46;;;;;;;44.80;5.97;;;27.20;62.60;;;;;;5054788;28;20045;-75
2021/12/22 06:58:13;;;;;;;13.75;3.70;;;27.20;62.20;;;;;;5047210;28;20025;-75
2021/12/22 07:00:39;;;;;;;15.25;4.72;;;27.20;61.40;;;;;;5048737;28;20025;-76
2021/12/22 07:03:06;;;;;;;18.73;3.97;;;27.20;61.00;;;;;;5048968;28;20033;-76
2021/12/22 07:05:33;;;;;;;20.23;4.90;;;27.20;60.70;;;;;;5049144;28;20025;-76
2021/12/22 07:07:59;;;;;;;15.88;3.53;;;27.30;60.50;;;;;;5035694;28;20041;-76
2021/12/22 07:10:26;;;;;;;19.90;4.65;;;27.30;60.30;;;;;;5033008;28;20025;-76
2021/12/22 07:12:53;;;;;;;17.88;3.88;;;27.40;60.20;;;;;;5035139;28;20013;-76
2021/12/22 07:15:20;;;;;;;12.15;4.57;;;27.40;60.30;;;;;;5035154;28;20052;-76
2021/12/22 07:17:49;;;;;;;26.38;6.28;;;27.40;60.40;;;;;;5035293;28;20084;-76
2021/12/22 07:20:16;;;;;;;13.60;7.05;;;27.40;60.60;;;;;;5034301;28;20148;-76
2021/12/22 07:22:43;;;;;;;16.88;5.05;;;27.40;60.90;;;;;;5033453;28;20022;-75
2021/12/22 07:25:12;;;;;;;18.10;5.68;;;27.40;61.00;;;;;;5032602;28;20041;-76
2021/12/22 07:27:39;;;;;;;15.35;5.03;;;27.50;61.10;;;;;;5040300;28;20024;-76
2021/12/22 07:30:06;;;;;;;18.13;5.50;;;27.50;61.40;;;;;;5034943;28;20029;-76
2021/12/22 07:32:32;;;;;;;20.17;5.40;;;27.60;61.70;;;;;;5038005;28;20025;-76
2021/12/22 07:35:14;;;;;;;19.35;6.53;;;27.60;61.90;;;;;;5033922;28;20096;-76
2021/12/22 07:37:40;;;;;;;9.73;5.10;;;27.60;62.00;;;;;;5034267;28;20054;-75
2021/12/22 07:40:14;;;;;;;15.52;5.95;;;27.60;62.10;;;;;;5032700;28;20036;-76
2021/12/22 07:42:41;;;;;;;12.23;5.13;;;27.70;62.90;;;;;;5036027;28;20029;-76
2021/12/22 07:45:09;;;;;;;10.50;5.05;;;27.70;62.40;;;;;;5034171;28;20026;-76
2021/12/22 07:47:35;;;;;;;15.02;6.65;;;27.70;62.40;;;;;;5032323;28;20017;-75
2021/12/22 07:50:03;;;;;;;14.52;6.70;;;27.70;62.20;;;;;;5036820;28;20017;-76
2021/12/22 07:52:30;;;;;;;12.20;4.65;;;27.70;62.20;;;;;;5036075;28;20112;-75
2021/12/22 07:54:57;;;;;;;11.82;4.63;;;27.80;62.40;;;;;;5031880;28;20125;-76
2021/12/22 07:57:23;;;;;;;10.90;4.97;;;27.90;62.40;;;;;;5033509;28;20021;-76
2021/12/22 07:59:50;;;;;;;12.35;4.00;;;27.90;62.20;;;;;;5033020;28;20021;-76
2021/12/22 08:02:17;;;;;;;13.95;4.53;;;28.00;61.90;;;;;;5032278;28;20083;-75
2021/12/22 08:04:44;;;;;;;17.30;4.90;;;28.10;61.60;;;;;;5033135;28;20028;-76
2021/12/22 08:07:10;;;;;;;18.20;6.03;;;28.10;61.50;;;;;;5032060;28;20049;-75
2021/12/22 08:09:37;;;;;;;15.75;4.15;;;28.10;61.30;;;;;;5032020;28;20105;-76
2021/12/22 08:12:04;;;;;;;22.75;4.47;;;28.20;61.30;;;;;;5033070;28;20025;-76
2021/12/22 08:14:36;;;;;;;11.45;3.33;;;28.20;61.20;;;;;;5033015;28;20025;-76
2021/12/22 08:17:03;;;;;;;16.42;3.85;;;28.20;61.00;;;;;;5032281;28;20022;-76
2021/12/22 08:19:30;;;;;;;19.42;4.65;;;28.20;60.90;;;;;;5040981;28;20068;-76
2021/12/22 08:21:57;;;;;;;14.80;4.30;;;28.20;61.30;;;;;;5032878;28;20078;-75
2021/12/22 08:24:24;;;;;;;23.75;5.25;;;28.30;61.50;;;;;;5031470;28;20029;-75
2021/12/22 08:26:52;;;;;;;25.80;5.00;;;28.20;61.40;;;;;;5031775;28;20067;-75
2021/12/22 08:29:19;;;;;;;10.35;3.60;;;28.30;61.80;;;;;;5031974;28;20056;-76
2021/12/22 08:31:45;;;;;;;11.45;3.72;;;28.30;62.10;;;;;;5033807;28;20116;-75
2021/12/22 08:34:16;;;;;;;8.30;3.08;;;28.30;62.20;;;;;;5032741;28;20021;-75
2021/12/22 08:39:38;;;;;;;5.85;2.95;;;28.30;62.10;;;;;;5000152;28;20031;-75
2021/12/22 08:42:05;;;;;;;6.28;2.80;;;28.40;62.00;;;;;;5039578;28;20021;-76
2021/12/22 08:44:33;;;;;;;7.50;3.10;;;28.40;62.00;;;;;;5034718;28;20060;-76
2021/12/22 08:47:00;;;;;;;8.88;2.75;;;28.40;61.90;;;;;;5031226;28;20407;-76
2021/12/22 08:49:26;;;;;;;8.50;2.75;;;28.40;61.80;;;;;;5032634;28;20147;-76
2021/12/22 08:51:53;;;;;;;6.47;2.47;;;28.40;61.80;;;;;;5030334;28;20029;-75
2021/12/22 08:54:19;;;;;;;6.38;2.63;;;28.50;61.80;;;;;;5033094;28;20021;-75
2021/12/22 08:56:46;;;;;;;10.00;2.42;;;28.50;61.80;;;;;;5033246;28;20056;-76
2021/12/22 08:59:14;;;;;;;7.10;3.33;;;28.60;61.80;;;;;;5030797;28;20576;-75
2021/12/22 09:01:42;;;;;;;4.85;2.55;;;28.60;61.60;;;;;;5031322;28;20102;-75
2021/12/22 09:04:09;;;;;;;6.55;2.70;;;28.70;61.30;;;;;;5030807;28;20104;-76
2021/12/22 09:06:36;;;;;;;8.73;2.72;;;28.80;61.20;;;;;;5039739;28;20025;-75
2021/12/22 09:09:04;;;;;;;6.07;3.00;;;28.80;61.00;;;;;;5030153;28;20492;-75
2021/12/22 09:11:31;;;;;;;7.13;2.50;;;28.90;60.70;;;;;;5032890;28;20437;-75
2021/12/22 09:13:57;;;;;;;6.13;3.20;;;29.00;60.50;;;;;;5031847;28;20036;-75
2021/12/22 09:16:24;;;;;;;11.20;2.65;;;29.00;60.40;;;;;;5034049;28;20040;-76
2021/12/22 09:18:50;;;;;;;5.30;1.90;;;29.10;60.50;;;;;;5031129;28;20026;-76
2021/12/22 09:21:17;;;;;;;4.13;2.13;;;29.20;60.40;;;;;;5030391;28;20406;-75
2021/12/22 09:23:44;;;;;;;19.27;3.67;;;29.20;60.30;;;;;;5030918;28;20104;-75
2021/12/22 09:26:10;;;;;;;15.02;3.10;;;29.20;60.20;;;;;;5030738;28;20022;-76
2021/12/22 09:28:37;;;;;;;13.73;2.78;;;29.30;60.20;;;;;;5033278;28;20361;-76
2021/12/22 09:31:05;;;;;;;6.00;2.25;;;29.30;59.90;;;;;;5034913;28;20358;-76
2021/12/22 09:33:34;;;;;;;7.30;2.08;;;29.40;59.70;;;;;;5031104;28;20021;-75
2021/12/22 09:36:01;;;;;;;7.28;2.08;;;29.40;59.30;;;;;;5030507;28;20507;-76
2021/12/22 09:38:28;;;;;;;7.05;2.15;;;29.40;59.10;;;;;;5032034;28;20021;-75
2021/12/22 09:40:55;;;;;;;5.88;2.28;;;29.40;59.10;;;;;;5030720;28;20027;-76
2021/12/22 09:43:21;;;;;;;4.30;2.35;;;29.50;59.00;;;;;;5031681;28;20442;-76
2021/12/22 09:45:53;;;;;;;5.15;1.90;;;29.40;58.70;;;;;;5031168;28;20028;-76
2021/12/22 09:53:46;;;;;;;3.60;1.67;;;29.40;59.40;;;;;;5020852;28;20653;-76
2021/12/22 09:56:16;;;;;;;4.95;1.80;;;29.30;58.80;;;;;;5032059;28;20413;-76
2021/12/22 09:58:45;;;;;;;48.88;4.95;;;29.40;59.00;;;;;;5031193;28;20496;-76
2021/12/22 10:01:13;;;;;;;12.65;3.00;;;29.40;59.10;;;;;;5030840;28;20028;-76
2021/12/22 10:03:40;;;;;;;4.78;2.28;;;29.40;59.30;;;;;;5029900;28;20009;-76
2021/12/22 10:06:07;;;;;;;8.02;2.03;;;29.30;59.30;;;;;;5034404;28;20021;-75
2021/12/22 10:08:36;;;;;;;10.75;2.13;;;29.40;59.40;;;;;;5029919;28;20017;-76
2021/12/22 10:11:10;;;;;;;4.18;1.90;;;29.40;59.40;;;;;;5032120;28;20030;-75
2021/12/22 10:13:44;;;;;;;5.13;2.13;;;29.50;59.60;;;;;;5031538;28;20040;-76
2021/12/22 10:16:15;;;;;;;6.88;2.15;;;29.50;59.40;;;;;;5031729;28;20131;-76
2021/12/22 10:18:41;;;;;;;4.55;1.67;;;29.50;59.30;;;;;;5032271;28;20028;-75
2021/12/22 10:21:23;;;;;;;10.63;2.50;;;29.60;59.30;;;;;;5029743;28;20022;-76
2021/12/22 10:23:53;;;;;;;5.88;1.98;;;29.70;59.10;;;;;;5030584;28;20029;-76
2021/12/22 10:26:26;;;;;;;8.05;2.25;;;29.80;58.80;;;;;;5028999;28;20079;-76
2021/12/22 10:29:04;;;;;;;8.95;2.83;;;29.80;58.40;;;;;;5031202;28;20030;-76
2021/12/22 10:31:35;;;;;;;5.90;2.38;;;29.90;58.00;;;;;;5032256;28;20048;-76
2021/12/22 10:34:10;;;;;;;5.25;2.83;;;29.90;57.80;;;;;;5031205;28;20029;-76
2021/12/22 10:36:55;;;;;;;3.95;2.13;;;29.90;57.70;;;;;;5029289;28;20036;-76
2021/12/22 10:39:30;;;;;;;4.32;2.22;;;29.90;57.60;;;;;;5027557;28;20392;-76
2021/12/22 10:42:11;;;;;;;5.43;2.65;;;29.90;57.60;;;;;;5031633;28;20026;-76
2021/12/22 10:44:39;;;;;;;4.75;2.00;;;30.00;57.60;;;;;;5035884;28;20017;-75
2021/12/22 10:49:14;;;;;;;3.55;2.20;;;30.00;57.60;;;;;;5032871;28;20006;-76
2021/12/22 10:50:13;;;;;;;12.48;2.50;;;30.10;57.40;;;;;;5033853;28;20033;-76
2021/12/22 10:52:40;;;;;;;7.15;2.30;;;30.10;57.30;;;;;;5035569;28;20387;-76
2021/12/22 10:55:12;;;;;;;5.78;1.70;;;30.20;57.40;;;;;;5033215;28;20500;-76
2021/12/22 10:57:41;;;;;;;10.90;3.05;;;30.30;57.30;;;;;;5037402;28;20021;-76
2021/12/22 11:00:17;;;;;;;6.18;1.80;;;30.40;57.10;;;;;;5034142;28;20123;-76
2021/12/22 11:02:50;;;;;;;6.63;1.98;;;30.40;56.70;;;;;;5034821;28;20480;-76
2021/12/22 11:05:28;;;;;;;6.38;2.00;;;30.40;56.60;;;;;;5033550;28;20472;-76
2021/12/22 11:07:55;;;;;;;7.47;2.40;;;30.50;56.60;;;;;;5030753;28;20022;-76
2021/12/22 11:10:26;;;;;;;5.10;2.17;;;30.50;56.60;;;;;;5034199;28;21617;-76
2021/12/22 11:13:07;;;;;;;6.82;2.92;;;30.50;56.50;;;;;;5032887;28;20021;-76
2021/12/22 11:15:45;;;;;;;5.28;1.88;;;30.50;56.20;;;;;;5035299;28;20525;-76
2021/12/22 11:18:36;;;;;;;7.00;2.28;;;30.60;56.30;;;;;;5040162;28;20033;-76
2021/12/22 11:21:17;;;;;;;9.82;1.92;;;30.60;56.00;;;;;;5028956;28;20021;-77
2021/12/22 11:23:44;;;;;;;8.85;2.38;;;30.70;55.90;;;;;;5038793;28;20032;-76
2021/12/22 11:26:14;;;;;;;8.38;1.98;;;30.70;55.90;;;;;;5030915;28;20036;-76
2021/12/22 11:28:41;;;;;;;7.03;2.65;;;30.70;55.90;;;;;;5032944;28;20048;-76
2021/12/22 11:31:10;;;;;;;7.78;2.30;;;30.70;55.80;;;;;;5032424;28;20029;-76
2021/12/22 11:33:40;;;;;;;7.18;2.13;;;30.80;55.80;;;;;;5036188;28;20029;-76
2021/12/22 11:36:08;;;;;;;5.40;2.38;;;30.80;55.90;;;;;;5039020;28;20029;-76
2021/12/22 11:38:35;;;;;;;3.38;1.50;;;30.80;55.90;;;;;;5033335;28;20092;-76
2021/12/22 11:41:12;;;;;;;3.97;1.60;;;30.80;55.70;;;;;;5043600;28;20030;-76
2021/12/22 11:43:44;;;;;;;6.57;2.45;;;30.80;55.80;;;;;;5033803;28;20025;-77
2021/12/22 11:46:11;;;;;;;10.05;2.08;;;30.80;55.90;;;;;;5031135;28;20025;-76
2021/12/22 11:48:39;;;;;;;3.53;1.23;;;30.80;55.80;;;;;;5032583;28;20695;-77
2021/12/22 11:51:27;;;;;;;4.95;2.05;;;30.80;55.70;;;;;;5034207;28;20496;-77
2021/12/22 11:53:59;;;;;;;4.97;1.83;;;30.70;55.70;;;;;;5029848;28;20029;-76
2021/12/22 11:56:49;;;;;;;8.70;2.40;;;30.70;55.70;;;;;;5021513;28;20049;-77
2021/12/22 11:59:28;;;;;;;5.90;1.60;;;30.80;55.80;;;;;;5034377;28;20025;-76
2021/12/22 12:02:25;;;;;;;7.07;1.40;;;30.80;55.70;;;;;;5031160;28;20108;-76
2021/12/22 12:04:54;;;;;;;3.10;1.27;;;30.90;55.60;;;;;;5042386;28;20018;-75
2021/12/22 12:07:41;;;;;;;2.92;1.90;;;31.00;55.40;;;;;;5032896;28;20017;-75
2021/12/22 12:10:33;;;;;;;9.85;2.78;;;31.00;55.20;;;;;;5038722;28;20028;-75
2021/12/22 12:13:05;;;;;;;11.27;2.08;;;31.00;55.20;;;;;;5037759;28;20022;-74
2021/12/22 12:22:31;;;;;;;7.07;1.77;;;31.00;55.20;;;;;;4999042;28;20045;-74
2021/12/22 12:24:57;;;;;;;4.75;1.98;;;31.00;55.00;;;;;;5028237;28;20046;-75
2021/12/22 12:27:40;;;;;;;3.40;1.95;;;30.90;55.00;;;;;;5038463;28;20039;-76
2021/12/22 12:30:23;;;;;;;5.15;1.42;;;30.90;55.00;;;;;;5036497;28;20017;-76
2021/12/22 12:32:49;;;;;;;4.03;1.58;;;30.90;55.10;;;;;;5035241;28;20087;-76
2021/12/22 12:35:28;;;;;;;4.90;2.08;;;30.90;55.10;;;;;;5038075;28;20503;-76
2021/12/22 12:38:02;;;;;;;5.40;1.60;;;30.90;55.00;;;;;;5034286;28;20071;-76
2021/12/22 12:41:11;;;;;;;6.25;1.85;;;31.00;55.00;;;;;;5032476;28;20100;-75
2021/12/22 12:43:52;;;;;;;4.43;1.55;;;31.00;54.90;;;;;;5035038;28;20025;-77
2021/12/22 12:48:51;;;;;;;6.65;1.80;;;31.00;54.60;;;;;;5039713;28;20044;-77
2021/12/22 12:51:29;;;;;;;7.90;2.38;;;31.10;54.70;;;;;;5035881;28;20380;-76
2021/12/22 12:53:59;;;;;;;6.28;2.38;;;31.00;54.90;;;;;;5032322;28;20128;-76
2021/12/22 12:56:34;;;;;;;11.93;2.28;;;31.10;55.20;;;;;;5031936;28;20049;-76
2021/12/22 12:59:31;;;;;;;10.93;3.70;;;31.20;55.30;;;;;;5036141;28;20026;-76
2021/12/22 13:01:59;;;;;;;11.55;2.20;;;31.20;55.60;;;;;;5023104;28;20041;-75
2021/12/22 13:04:27;;;;;;;21.58;2.78;;;31.20;55.40;;;;;;5035612;28;20040;-77
2021/12/22 13:07:01;;;;;;;9.32;2.15;;;31.20;55.50;;;;;;5031736;28;20013;-76
2021/12/22 13:09:35;;;;;;;4.45;1.63;;;31.10;55.30;;;;;;5034919;28;20028;-76
2021/12/22 13:17:59;;;;;;;8.15;2.75;;;31.10;55.40;;;;;;5034281;28;20039;-75
2021/12/22 13:20:28;;;;;;;8.25;2.38;;;31.10;55.00;;;;;;5037533;28;20056;-76
2021/12/22 13:22:57;;;;;;;7.68;3.38;;;31.10;54.90;;;;;;5033845;28;20028;-75
2021/12/22 13:25:42;;;;;;;4.88;1.80;;;31.10;55.00;;;;;;5034575;28;20465;-77
2021/12/22 13:28:11;;;;;;;3.90;1.50;;;31.10;55.20;;;;;;5033028;28;20104;-75